Time;durP1;ratioP1;P1;durP2;ratioP2;P2;SDS_P1;SDS_P2;PMS_P1;PMS_P2;Temp;Humidity;BMP_temperature;BMP_pressure;BME280_temperature;BME280_humidity;BME280_pressure;Samples;Min_cycle;Max_cycle;Signal;HPM_P1;HPM_P2
2023/01/25 00:00:05;;;;;;;22.00;15.90;;;;;;;-0.13;78.76;102003.83;109416;1253;65338;-70
2023/01/25 00:02:33;;;;;;;21.50;15.90;;;;;;;-0.12;78.72;102001.38;109412;1253;58452;-70
2023/01/25 00:05:01;;;;;;;23.40;16.40;;;;;;;-0.14;78.70;101998.64;109402;1253;64636;-70
2023/01/25 00:07:30;;;;;;;20.70;15.80;;;;;;;-0.13;78.68;102002.78;109352;1253;57265;-70
2023/01/25 00:09:58;;;;;;;23.90;15.90;;;;;;;-0.14;78.66;102004.19;109397;1253;57365;-70
2023/01/25 00:12:26;;;;;;;22.30;16.80;;;;;;;-0.15;78.67;102000.05;109430;1253;64086;-70
2023/01/25 00:14:54;;;;;;;22.00;16.50;;;;;;;-0.15;78.72;101999.52;109429;1253;59195;-70
2023/01/25 00:17:25;;;;;;;26.20;15.60;;;;;;;-0.14;78.69;102001.42;109387;1253;65313;-70
2023/01/25 00:19:53;;;;;;;23.30;16.60;;;;;;;-0.13;78.72;101998.98;109367;1253;57301;-70
2023/01/25 00:22:21;;;;;;;22.30;15.70;;;;;;;-0.13;78.69;101996.38;109412;1253;57401;-70
2023/01/25 00:24:52;;;;;;;22.90;16.90;;;;;;;-0.11;78.69;101994.29;109407;1253;64969;-71
2023/01/25 00:27:20;;;;;;;21.60;16.30;;;;;;;-0.11;78.69;101992.88;109450;1253;58414;-71
2023/01/25 00:29:48;;;;;;;21.40;15.80;;;;;;;-0.11;78.73;101991.33;109401;1253;65059;-70
2023/01/25 00:32:19;;;;;;;20.60;16.00;;;;;;;-0.11;78.60;101989.94;109284;1253;57292;-70
2023/01/25 00:34:49;;;;;;;21.30;15.70;;;;;;;-0.11;78.56;101986.65;109327;1253;57432;-70
2023/01/25 00:37:28;;;;;;;20.10;15.80;;;;;;;-0.11;78.53;101985.45;109370;1253;64046;-70
2023/01/25 00:39:57;;;;;;;22.90;16.10;;;;;;;-0.11;78.56;101980.25;109228;1253;59196;-70
2023/01/25 00:42:25;;;;;;;24.20;15.30;;;;;;;-0.10;78.57;101977.98;109300;1253;64056;-70
2023/01/25 00:44:53;;;;;;;21.80;16.30;;;;;;;-0.11;78.57;101977.48;109415;1253;57337;-71
2023/01/25 00:47:22;;;;;;;22.20;15.30;;;;;;;-0.13;78.54;101971.62;109425;1253;57256;-70
2023/01/25 00:49:50;;;;;;;20.60;15.20;;;;;;;-0.14;78.53;101971.80;109397;1255;64288;-70
2023/01/25 00:52:18;;;;;;;21.30;15.40;;;;;;;-0.15;78.43;101968.88;109399;1253;59384;-70
2023/01/25 00:54:48;;;;;;;23.70;16.20;;;;;;;-0.16;78.45;101972.01;109295;1253;64686;-71
2023/01/25 00:57:16;;;;;;;20.80;15.70;;;;;;;-0.16;78.44;101970.27;109370;1253;57364;-71
2023/01/25 00:59:46;;;;;;;20.00;15.30;;;;;;;-0.15;78.46;101968.70;109365;1254;57366;-70
2023/01/25 01:06:45;;;;;;;22.30;15.30;;;;;;;-0.15;78.50;101958.32;109387;1254;59058;-70
2023/01/25 01:09:15;;;;;;;22.10;16.50;;;;;;;-0.15;78.52;101954.52;109313;1254;64736;-72
2023/01/25 01:11:43;;;;;;;21.70;16.30;;;;;;;-0.14;78.48;101955.53;109102;1254;57355;-70
2023/01/25 01:14:12;;;;;;;20.50;15.80;;;;;;;-0.13;78.57;101955.70;109351;1254;57367;-70
2023/01/25 01:16:40;;;;;;;21.30;16.00;;;;;;;-0.13;78.49;101953.61;109352;1254;64160;-70
2023/01/25 01:19:10;;;;;;;20.20;15.10;;;;;;;-0.13;78.41;101953.27;109237;1255;58394;-70
2023/01/25 01:21:38;;;;;;;20.70;16.00;;;;;;;-0.13;78.40;101952.73;109156;1255;63967;-70
2023/01/25 01:24:08;;;;;;;21.20;15.00;;;;;;;-0.12;78.36;101955.69;109153;1256;57232;-70
2023/01/25 01:26:37;;;;;;;21.40;15.70;;;;;;;-0.13;78.40;101952.39;109180;1255;57279;-70
2023/01/25 01:29:05;;;;;;;20.60;15.00;;;;;;;-0.14;78.31;101948.96;109277;1255;65326;-70
2023/01/25 01:31:35;;;;;;;22.30;15.10;;;;;;;-0.15;78.33;101950.17;109192;1255;59665;-70
2023/01/25 01:34:17;;;;;;;20.10;15.30;;;;;;;-0.15;78.28;101948.96;109279;1255;65355;-70
2023/01/25 01:36:46;;;;;;;21.80;16.10;;;;;;;-0.15;78.25;101947.07;109278;1255;57594;-70
2023/01/25 01:39:14;;;;;;;22.00;16.20;;;;;;;-0.16;78.24;101946.91;109270;1255;57231;-70
2023/01/25 01:41:42;;;;;;;21.60;15.10;;;;;;;-0.17;78.26;101947.09;109247;1255;65207;-69
2023/01/25 01:44:18;;;;;;;21.00;15.50;;;;;;;-0.17;78.29;101945.52;109215;1255;58282;-70
2023/01/25 01:46:52;;;;;;;25.00;15.60;;;;;;;-0.18;78.28;101943.29;109020;1256;63880;-70
2023/01/25 01:49:20;;;;;;;20.80;15.30;;;;;;;-0.17;78.23;101941.20;109064;1255;57266;-72
2023/01/25 01:52:06;;;;;;;22.40;15.60;;;;;;;-0.16;78.13;101936.00;109176;1256;57394;-70
2023/01/25 01:54:45;;;;;;;19.80;14.20;;;;;;;-0.16;78.14;101932.70;109218;1254;65356;-70
2023/01/25 01:57:22;;;;;;;20.20;14.70;;;;;;;-0.14;78.15;101933.03;109074;1254;58405;-69
2023/01/25 01:59:56;;;;;;;21.40;15.20;;;;;;;-0.15;78.10;101929.23;109217;1255;64020;-70
2023/01/25 02:02:25;;;;;;;20.60;15.50;;;;;;;-0.19;78.13;101929.80;109263;1255;57362;-69
2023/01/25 02:04:56;;;;;;;19.30;14.80;;;;;;;-0.19;78.11;101925.80;109168;1256;57427;-70
2023/01/25 02:07:34;;;;;;;19.30;14.40;;;;;;;-0.20;78.10;101922.00;109261;1255;64391;-71
2023/01/25 02:10:03;;;;;;;20.60;15.10;;;;;;;-0.21;78.15;101924.44;109286;1255;58126;-69
2023/01/25 02:12:32;;;;;;;23.40;15.10;;;;;;;-0.21;78.14;101924.27;109253;1256;64994;-70
2023/01/25 02:15:00;;;;;;;21.70;15.50;;;;;;;-0.21;78.10;101921.15;109103;1255;57294;-70
2023/01/25 02:17:31;;;;;;;18.50;14.50;;;;;;;-0.22;78.11;101922.02;109291;1255;57254;-69
2023/01/25 02:20:08;;;;;;;21.40;15.00;;;;;;;-0.21;78.13;101922.70;109212;1255;65264;-69
2023/01/25 02:22:39;;;;;;;22.10;14.90;;;;;;;-0.20;78.07;101924.95;109279;1254;58500;-69
2023/01/25 02:25:08;;;;;;;20.70;14.80;;;;;;;-0.21;78.03;101928.23;109353;1254;65115;-71
2023/01/25 02:27:41;;;;;;;20.80;14.60;;;;;;;-0.23;78.03;101930.00;109287;1254;57312;-70
2023/01/25 02:30:10;;;;;;;21.30;15.00;;;;;;;-0.22;78.05;101924.98;109330;1254;57273;-70
2023/01/25 02:32:40;;;;;;;20.80;15.00;;;;;;;-0.23;78.02;101923.09;109289;1254;65350;-70
2023/01/25 02:35:19;;;;;;;22.00;15.60;;;;;;;-0.23;78.04;101923.08;109357;1253;58222;-70
2023/01/25 02:37:49;;;;;;;22.60;15.90;;;;;;;-0.24;77.99;101922.05;109268;1254;64000;-69
2023/01/25 02:40:17;;;;;;;22.70;16.00;;;;;;;-0.22;78.00;101920.46;109120;1259;58112;-70
2023/01/25 02:42:47;;;;;;;22.20;15.80;;;;;;;-0.20;77.92;101919.58;109342;1254;58180;-69
2023/01/25 02:45:16;;;;;;;22.50;15.30;;;;;;;-0.20;77.90;101919.75;109308;1254;66399;-70
2023/01/25 02:57:07;;;;;;;19.60;14.10;;;;;;;-0.23;77.96;101918.39;109361;1254;58145;-70
2023/01/25 02:59:42;;;;;;;17.60;14.20;;;;;;;-0.23;77.91;101916.15;109292;1254;58009;-70
2023/01/25 03:02:11;;;;;;;19.00;14.60;;;;;;;-0.22;77.90;101915.27;109229;1254;66002;-70
2023/01/25 03:04:42;;;;;;;18.60;14.00;;;;;;;-0.23;77.89;101910.95;109278;1254;58505;-70
2023/01/25 03:07:14;;;;;;;22.30;14.80;;;;;;;-0.24;77.83;101912.70;109320;1254;63094;-70
2023/01/25 03:09:46;;;;;;;18.60;14.30;;;;;;;-0.27;77.87;101911.71;109159;1254;58619;-70
2023/01/25 03:12:16;;;;;;;19.30;14.10;;;;;;;-0.29;77.88;101915.34;109300;1254;58197;-70
2023/01/25 03:14:48;;;;;;;17.70;14.00;;;;;;;-0.30;77.92;101913.27;109286;1256;64044;-70
2023/01/25 03:17:19;;;;;;;19.00;14.50;;;;;;;-0.29;77.88;101917.07;109317;1254;58361;-70
2023/01/25 03:19:47;;;;;;;19.20;14.10;;;;;;;-0.27;77.94;101918.64;109244;1254;65007;-74
2023/01/25 03:22:16;;;;;;;19.20;15.00;;;;;;;-0.28;77.94;101916.91;109029;1254;58169;-68
2023/01/25 03:29:33;;;;;;;20.90;13.90;;;;;;;-0.25;77.89;101915.67;109315;1254;65079;-68
2023/01/25 03:32:03;;;;;;;17.80;12.60;;;;;;;-0.24;77.86;101914.95;109249;1254;58480;-73
2023/01/25 03:34:34;;;;;;;16.50;12.90;;;;;;;-0.24;77.80;101914.42;109151;1254;65162;-73
2023/01/25 03:37:03;;;;;;;17.80;12.70;;;;;;;-0.24;77.73;101914.77;109034;1254;58408;-70
2023/01/25 03:39:32;;;;;;;17.60;13.10;;;;;;;-0.25;77.85;101922.76;109194;1254;58211;-70
2023/01/25 03:42:03;;;;;;;17.40;13.40;;;;;;;-0.24;77.80;101925.86;109145;1254;66208;-69
2023/01/25 03:44:33;;;;;;;16.10;12.70;;;;;;;-0.25;77.66;101928.11;109235;1254;59316;-68
2023/01/25 03:47:02;;;;;;;16.30;12.10;;;;;;;-0.25;77.64;101922.77;109217;1254;63999;-69
2023/01/25 03:49:31;;;;;;;15.90;12.00;;;;;;;-0.26;77.56;101923.80;109208;1254;58129;-70
2023/01/25 03:52:00;;;;;;;25.50;20.60;;;;;;;-0.26;77.54;101927.97;109217;1254;58241;-69
2023/01/25 03:54:34;;;;;;;18.10;13.40;;;;;;;-0.29;77.44;101929.71;109257;1254;65437;-72
2023/01/25 03:57:04;;;;;;;16.40;11.60;;;;;;;-0.28;77.31;101931.96;109327;1254;58254;-71
2023/01/25 03:59:39;;;;;;;14.60;10.50;;;;;;;-0.28;77.21;101931.10;109173;1255;64994;-71
2023/01/25 04:02:08;;;;;;;12.50;9.20;;;;;;;-0.30;77.01;101933.52;109011;1256;58182;-71
2023/01/25 04:04:39;;;;;;;14.40;9.50;;;;;;;-0.31;76.78;101932.14;109112;1256;58163;-71
2023/01/25 04:07:09;;;;;;;13.60;9.00;;;;;;;-0.32;76.63;101933.37;109167;1256;64968;-71
2023/01/25 04:09:39;;;;;;;12.90;8.70;;;;;;;-0.31;76.47;101931.45;109119;1255;59261;-71
2023/01/25 04:12:08;;;;;;;11.90;8.90;;;;;;;-0.29;76.30;101934.73;109167;1256;73399;-71
2023/01/25 04:14:38;;;;;;;16.10;9.30;;;;;;;-0.31;76.12;101933.02;109094;1255;58103;-70
2023/01/25 04:17:18;;;;;;;12.40;8.50;;;;;;;-0.32;75.93;101932.67;109169;1256;58223;-72
2023/01/25 04:19:58;;;;;;;13.90;8.70;;;;;;;-0.33;75.73;101929.41;108995;1256;65936;-70
2023/01/25 04:22:32;;;;;;;11.10;8.10;;;;;;;-0.34;75.45;101931.48;109201;1255;59571;-70
2023/01/25 04:25:01;;;;;;;13.00;9.20;;;;;;;-0.35;75.22;101933.77;109163;1256;64928;-71
2023/01/25 04:27:30;;;;;;;10.40;9.10;;;;;;;-0.36;75.00;101933.77;109147;1255;58146;-72
2023/01/25 04:30:04;;;;;;;;;;;;;;;-0.35;74.91;101932.71;109121;1256;58102;-70
2023/01/25 04:32:36;;;;;;;11.30;8.20;;;;;;;-0.35;74.77;101932.89;109104;1256;66298;-70
2023/01/25 04:35:10;;;;;;;12.30;8.40;;;;;;;-0.34;74.61;101933.05;109135;1255;59204;-70
2023/01/25 04:37:40;;;;;;;12.00;8.90;;;;;;;-0.35;74.41;101938.77;109159;1256;63789;-71
2023/01/25 04:40:09;;;;;;;15.30;8.20;;;;;;;-0.35;74.26;101937.05;109114;1256;58276;-70
2023/01/25 04:42:42;;;;;;;12.10;7.90;;;;;;;-0.36;74.10;101935.48;109117;1256;58164;-76
2023/01/25 04:45:12;;;;;;;11.70;7.90;;;;;;;-0.34;73.89;101934.95;109009;1256;66220;-71
2023/01/25 04:47:41;;;;;;;10.20;8.10;;;;;;;-0.33;73.76;101936.50;109116;1256;58266;-70
2023/01/25 04:50:09;;;;;;;11.00;8.00;;;;;;;-0.32;73.66;101933.73;109132;1256;64051;-71
2023/01/25 04:52:38;;;;;;;12.10;8.50;;;;;;;-0.31;73.52;101937.35;109110;1255;58090;-70
2023/01/25 04:55:07;;;;;;;10.80;8.60;;;;;;;-0.32;73.40;101934.58;109176;1256;58250;-72
2023/01/25 04:57:40;;;;;;;12.40;8.20;;;;;;;-0.32;73.28;101931.13;109041;1256;66625;-72
2023/01/25 05:00:10;;;;;;;9.90;8.00;;;;;;;-0.32;73.14;101935.98;109068;1256;58460;-73
2023/01/25 05:02:41;;;;;;;12.80;8.20;;;;;;;-0.32;72.93;101937.54;109024;1256;64777;-74
2023/01/25 05:05:13;;;;;;;11.30;7.60;;;;;;;-0.31;72.84;101938.39;109097;1256;58154;-72
2023/01/25 05:07:47;;;;;;;11.30;8.20;;;;;;;-0.32;72.75;101940.81;109060;1256;58210;-73
2023/01/25 05:10:18;;;;;;;13.00;8.00;;;;;;;-0.31;72.57;101947.55;109021;1256;65138;-72
2023/01/25 05:13:09;;;;;;;12.50;7.70;;;;;;;-0.31;72.39;101946.17;109069;1256;58309;-73
2023/01/25 05:15:43;;;;;;;13.00;7.70;;;;;;;-0.32;72.24;101946.70;108999;1256;64691;-73
2023/01/25 05:18:15;;;;;;;12.00;8.10;;;;;;;-0.32;72.14;101953.96;109052;1256;58216;-73
2023/01/25 05:20:48;;;;;;;10.70;8.00;;;;;;;-0.31;72.01;101950.32;109030;1256;58111;-72
2023/01/25 05:23:20;;;;;;;13.40;8.10;;;;;;;-0.31;71.88;101952.23;108991;1256;66510;-73
2023/01/25 05:28:43;;;;;;;10.40;7.50;;;;;;;-0.33;71.60;101954.84;108936;1256;64012;-73
2023/01/25 05:31:21;;;;;;;10.80;8.00;;;;;;;-0.34;71.46;101955.72;108933;1256;58264;-74
2023/01/25 05:33:52;;;;;;;11.10;8.00;;;;;;;-0.33;71.34;101959.00;109134;1256;58046;-73
2023/01/25 05:36:25;;;;;;;12.00;8.20;;;;;;;-0.33;71.25;101958.48;109007;1256;65949;-72
2023/01/25 05:38:57;;;;;;;11.50;7.80;;;;;;;-0.32;71.17;101959.85;109081;1256;58396;-71
2023/01/25 05:41:31;;;;;;;11.90;8.30;;;;;;;-0.31;71.07;101961.05;108982;1256;64071;-72
2023/01/25 05:44:27;;;;;;;13.30;7.70;;;;;;;-0.32;71.02;101960.38;108934;1256;58188;-74
2023/01/25 05:47:01;;;;;;;10.40;7.70;;;;;;;-0.33;70.92;101956.23;108996;1256;58176;-73
2023/01/25 05:49:33;;;;;;;10.60;8.70;;;;;;;-0.34;70.78;101956.59;109004;1256;64030;-73
2023/01/25 05:52:05;;;;;;;12.80;8.70;;;;;;;-0.34;70.73;101956.92;109023;1256;60368;-72
2023/01/25 05:54:37;;;;;;;16.40;8.40;;;;;;;-0.34;70.69;101956.93;108986;1256;64797;-73
2023/01/25 05:57:07;;;;;;;11.70;8.60;;;;;;;-0.33;70.68;101957.62;108969;1256;58120;-72
2023/01/25 07:43:09;;;;;;;14.30;10.60;;;;;;;-0.98;74.36;101942.30;103786;1283;607751;-75
2023/01/25 07:45:36;;;;;;;15.20;9.70;;;;;;;-0.43;72.98;101938.50;105853;1265;116447;-75
2023/01/25 07:48:08;;;;;;;13.10;9.00;;;;;;;-0.45;72.80;101941.29;105257;1266;59304;-76
2023/01/25 07:50:35;;;;;;;13.20;8.90;;;;;;;-0.46;72.69;101940.61;105118;1269;65344;-75
2023/01/25 07:53:03;;;;;;;12.20;8.80;;;;;;;-0.49;72.56;101942.70;105116;1268;59803;-73
2023/01/25 07:55:31;;;;;;;14.30;9.00;;;;;;;-0.50;72.51;101941.52;105887;1263;65357;-75
2023/01/25 07:58:02;;;;;;;15.00;9.80;;;;;;;-0.52;72.41;101940.31;105881;1256;59335;-75
2023/01/25 08:00:33;;;;;;;24.20;10.60;;;;;;;-0.53;72.35;101941.02;105890;1254;59432;-72
2023/01/25 08:03:06;;;;;;;13.10;8.60;;;;;;;-0.54;72.25;101938.25;106483;1252;64059;-74
2023/01/25 08:05:36;;;;;;;47.20;11.10;;;;;;;-0.54;72.11;101938.60;106260;1253;59311;-74
2023/01/25 08:08:05;;;;;;;13.80;8.50;;;;;;;-0.55;72.03;101937.23;106028;1255;64762;-72
2023/01/25 08:10:32;;;;;;;26.30;9.40;;;;;;;-0.58;71.90;101936.72;105882;1254;59541;-73
2023/01/25 08:12:59;;;;;;;12.60;8.40;;;;;;;-0.60;71.86;101935.52;105837;1254;59650;-76
2023/01/25 08:15:26;;;;;;;13.80;8.60;;;;;;;-0.60;71.81;101936.05;105786;1256;66047;-76
2023/01/25 08:17:53;;;;;;;12.20;8.80;;;;;;;-0.61;71.74;101933.98;106117;1254;59948;-74
2023/01/25 08:20:25;;;;;;;11.60;8.30;;;;;;;-0.62;71.68;101934.67;106611;1255;64298;-77
2023/01/25 08:22:52;;;;;;;10.50;7.80;;;;;;;-0.63;71.71;101938.84;105986;1253;59544;-76
2023/01/25 08:25:19;;;;;;;11.00;8.30;;;;;;;-0.62;71.63;101938.66;106369;1257;59596;-75
2023/01/25 08:27:54;;;;;;;11.60;8.60;;;;;;;-0.61;71.58;101936.58;105807;1254;64662;-78
2023/01/25 08:30:20;;;;;;;11.00;8.30;;;;;;;-0.61;71.60;101941.77;106051;1260;67918;-75
2023/01/25 08:32:47;;;;;;;10.40;8.40;;;;;;;-0.60;71.59;101941.77;106041;1258;65575;-75
2023/01/25 08:35:14;;;;;;;11.80;9.00;;;;;;;-0.58;71.60;101938.46;105530;1254;59810;-76
2023/01/25 08:37:41;;;;;;;14.50;8.80;;;;;;;-0.56;71.61;101936.55;105890;1254;59650;-77
2023/01/25 08:40:08;;;;;;;15.60;8.50;;;;;;;-0.56;71.53;101934.13;105849;1257;65744;-71
2023/01/25 08:42:41;;;;;;;73.70;13.50;;;;;;;-0.55;71.51;101934.81;105903;1254;59745;-77
2023/01/25 08:45:09;;;;;;;26.90;9.20;;;;;;;-0.55;71.39;101933.77;105865;1256;65698;-79
2023/01/25 08:47:36;;;;;;;11.80;8.60;;;;;;;-0.54;71.31;101932.73;106018;1257;59992;-76
2023/01/25 08:50:06;;;;;;;13.40;9.10;;;;;;;-0.56;71.24;101930.48;105901;1254;59690;-81
2023/01/25 08:52:33;;;;;;;13.40;9.30;;;;;;;-0.56;71.13;101933.79;106251;1255;66011;-81
2023/01/25 08:55:00;;;;;;;13.30;8.90;;;;;;;-0.55;71.12;101934.47;106003;1254;59732;-77
2023/01/25 08:57:27;;;;;;;12.30;8.60;;;;;;;-0.54;71.10;101934.27;106022;1254;65529;-82
2023/01/25 08:59:55;;;;;;;17.90;9.70;;;;;;;-0.53;70.98;101935.14;105955;1257;59612;-82
2023/01/25 09:02:21;;;;;;;12.20;9.20;;;;;;;-0.53;70.92;101937.04;105841;1258;59925;-79
2023/01/25 09:04:48;;;;;;;15.00;9.50;;;;;;;-0.53;70.90;101934.62;106105;1254;65698;-77
2023/01/25 09:07:15;;;;;;;12.40;8.70;;;;;;;-0.55;70.69;101928.59;106135;1257;59706;-78
2023/01/25 09:09:42;;;;;;;11.80;8.40;;;;;;;-0.56;70.66;101929.80;105872;1254;65839;-75
2023/01/25 09:12:08;;;;;;;13.30;8.80;;;;;;;-0.57;70.56;101931.02;106117;1256;59612;-78
2023/01/25 09:14:37;;;;;;;15.60;10.00;;;;;;;-0.58;70.52;101932.05;106230;1254;59730;-75
2023/01/25 09:17:04;;;;;;;14.80;9.50;;;;;;;-0.57;70.56;101930.50;106064;1260;66096;-74
2023/01/25 09:19:32;;;;;;;12.60;8.80;;;;;;;-0.56;70.54;101933.61;106163;1259;59691;-74
2023/01/25 09:21:58;;;;;;;12.80;9.40;;;;;;;-0.54;70.52;101933.94;106110;1257;65969;-76
2023/01/25 09:24:26;;;;;;;14.50;9.50;;;;;;;-0.54;70.55;101933.41;105977;1255;59730;-75
2023/01/25 09:26:53;;;;;;;14.70;9.00;;;;;;;-0.54;70.59;101932.02;106022;1257;59615;-75
2023/01/25 09:29:26;;;;;;;43.20;10.50;;;;;;;-0.53;70.59;101929.77;106191;1254;65638;-75
2023/01/25 09:31:53;;;;;;;51.70;12.50;;;;;;;-0.55;70.26;101929.96;105834;1261;59719;-74
2023/01/25 09:34:33;;;;;;;21.60;9.30;;;;;;;-0.55;70.23;101927.20;106221;1257;65360;-79
2023/01/25 09:37:01;;;;;;;12.70;8.80;;;;;;;-0.54;70.23;101923.56;106618;1253;59801;-74
2023/01/25 09:39:28;;;;;;;12.10;8.90;;;;;;;-0.54;70.24;101924.25;106155;1254;60404;-76
2023/01/25 09:42:21;;;;;;;14.50;8.90;;;;;;;-0.54;70.30;101924.07;106088;1256;65071;-80
2023/01/25 09:45:09;;;;;;;13.20;9.10;;;;;;;-0.52;70.28;101921.81;106086;1256;60039;-77
2023/01/25 09:47:39;;;;;;;14.10;8.70;;;;;;;-0.51;70.28;101920.23;106101;1254;65621;-71
2023/01/25 09:50:31;;;;;;;29.00;10.40;;;;;;;-0.49;70.23;101920.03;107182;1254;59123;-75
2023/01/25 09:53:20;;;;;;;17.70;9.40;;;;;;;-0.48;70.08;101914.49;106281;1256;59534;-69
2023/01/25 09:55:53;;;;;;;69.20;13.50;;;;;;;-0.49;69.99;101909.48;108258;1256;64755;-73
2023/01/25 09:58:23;;;;;;;21.80;10.20;;;;;;;-0.49;70.11;101902.05;109243;1254;58843;-74
2023/01/25 10:01:04;;;;;;;28.50;10.60;;;;;;;-0.48;70.18;101897.02;108691;1258;65808;-72
2023/01/25 10:04:12;;;;;;;18.60;9.90;;;;;;;-0.46;70.25;101892.67;105846;1262;59701;-70
2023/01/25 10:06:44;;;;;;;15.40;10.50;;;;;;;-0.43;70.26;101894.03;105792;1260;59656;-72
2023/01/25 10:09:48;;;;;;;18.60;10.60;;;;;;;-0.45;70.20;101887.32;105829;1257;64646;-72
2023/01/25 10:12:22;;;;;;;15.90;9.90;;;;;;;-0.47;70.23;101881.79;105750;1259;59717;-78
2023/01/25 10:14:50;;;;;;;34.40;12.70;;;;;;;-0.49;70.28;101880.23;106368;1260;64402;-75
2023/01/25 10:17:40;;;;;;;27.20;11.30;;;;;;;-0.49;70.19;101877.47;105904;1256;59538;-74
2023/01/25 10:20:28;;;;;;;20.50;11.50;;;;;;;-0.47;70.29;101872.95;106078;1254;59669;-76
2023/01/25 10:23:27;;;;;;;18.70;11.70;;;;;;;-0.46;70.27;101874.34;105837;1257;66131;-76
2023/01/25 10:25:57;;;;;;;16.90;11.40;;;;;;;-0.44;70.47;101874.66;105735;1259;60042;-77
2023/01/25 10:28:58;;;;;;;23.00;10.60;;;;;;;-0.44;70.34;101871.02;105864;1254;65678;-78
2023/01/25 10:31:34;;;;;;;19.60;11.80;;;;;;;-0.44;70.30;101866.17;105611;1257;60397;-77
2023/01/25 10:34:17;;;;;;;16.80;11.00;;;;;;;-0.45;70.10;101862.90;105917;1257;59544;-77
2023/01/25 10:37:10;;;;;;;17.10;11.40;;;;;;;-0.45;70.22;101861.70;105835;1253;66072;-78
2023/01/25 10:40:03;;;;;;;17.30;11.30;;;;;;;-0.45;70.22;101857.02;105886;1259;59912;-78
2023/01/25 10:43:05;;;;;;;16.10;10.60;;;;;;;-0.44;70.13;101856.33;105695;1261;73134;-78
2023/01/25 10:45:33;;;;;;;14.70;10.50;;;;;;;-0.44;70.19;101858.73;105690;1261;59927;-78
2023/01/25 10:48:05;;;;;;;15.10;10.50;;;;;;;-0.43;70.19;101856.66;105845;1253;59717;-78
2023/01/25 10:50:41;;;;;;;14.00;10.20;;;;;;;-0.42;70.15;101853.00;105810;1255;64599;-77
2023/01/25 10:53:23;;;;;;;14.40;10.50;;;;;;;-0.41;70.18;101854.72;105780;1254;59875;-74
2023/01/25 10:56:25;;;;;;;15.80;10.30;;;;;;;-0.40;70.20;101850.73;105795;1257;65375;-78
2023/01/25 10:59:05;;;;;;;13.50;10.30;;;;;;;-0.39;70.15;101846.38;105763;1264;59725;-79
2023/01/25 11:01:34;;;;;;;13.80;9.90;;;;;;;-0.40;70.12;101846.55;105933;1254;59672;-75
2023/01/25 11:04:01;;;;;;;41.20;10.80;;;;;;;-0.39;70.10;101847.60;105952;1256;65763;-76
2023/01/25 11:06:37;;;;;;;16.10;10.00;;;;;;;-0.38;70.07;101843.80;105870;1258;59763;-75
2023/01/25 11:09:21;;;;;;;13.90;10.20;;;;;;;-0.37;70.01;101839.98;105680;1258;65668;-78
2023/01/25 11:12:03;;;;;;;13.90;10.40;;;;;;;-0.36;69.91;101839.27;106044;1252;59759;-76
2023/01/25 11:14:31;;;;;;;30.10;12.30;;;;;;;-0.39;69.95;101833.94;106018;1260;59637;-76
2023/01/25 11:16:59;;;;;;;17.50;11.00;;;;;;;-0.40;70.02;101833.08;105896;1254;64884;-76
2023/01/25 11:19:37;;;;;;;13.90;10.60;;;;;;;-0.40;69.96;101830.83;106000;1255;60143;-71
2023/01/25 11:22:18;;;;;;;13.70;10.80;;;;;;;-0.40;69.98;101830.83;105735;1257;65618;-78
2023/01/25 11:24:45;;;;;;;15.80;10.30;;;;;;;-0.40;69.96;101828.39;105750;1261;59541;-78
2023/01/25 11:27:19;;;;;;;15.70;10.60;;;;;;;-0.41;69.95;101822.87;105805;1257;59608;-72
2023/01/25 11:30:08;;;;;;;13.20;10.20;;;;;;;-0.41;69.71;101822.88;105822;1254;75253;-72
2023/01/25 11:32:43;;;;;;;39.60;26.90;;;;;;;-0.43;69.72;101813.21;109697;1251;59551;-71
2023/01/25 11:35:22;;;;;;;33.60;21.70;;;;;;;-0.44;69.66;101813.75;109513;1253;67018;-73
2023/01/25 11:38:14;;;;;;;16.80;12.30;;;;;;;-0.45;69.79;101812.73;109226;1254;57404;-72
2023/01/25 11:41:12;;;;;;;16.10;10.70;;;;;;;-0.44;69.72;101810.12;109585;1253;57330;-71
2023/01/25 11:43:58;;;;;;;14.40;10.20;;;;;;;-0.43;69.68;101808.02;109371;1251;65470;-72
2023/01/25 11:46:36;;;;;;;13.50;10.40;;;;;;;-0.42;69.66;101805.06;109531;1254;58509;-72
2023/01/25 11:49:20;;;;;;;12.70;9.30;;;;;;;-0.41;69.58;101805.73;109594;1251;65069;-72
2023/01/25 11:51:52;;;;;;;13.50;10.10;;;;;;;-0.43;69.41;101802.32;109489;1254;57363;-73
2023/01/25 11:54:24;;;;;;;14.40;10.40;;;;;;;-0.45;69.29;101801.13;109489;1253;57316;-72
2023/01/25 11:57:16;;;;;;;15.30;10.80;;;;;;;-0.46;69.30;101802.70;109447;1251;65208;-72
2023/01/25 11:59:53;;;;;;;14.40;10.40;;;;;;;-0.44;69.42;101802.67;109491;1255;58393;-72
2023/01/25 12:02:48;;;;;;;14.80;10.60;;;;;;;-0.41;69.52;101796.92;109448;1251;65036;-71
2023/01/25 12:05:26;;;;;;;14.20;10.30;;;;;;;-0.39;69.43;101794.64;109517;1253;58209;-72
2023/01/25 12:08:02;;;;;;;14.50;10.40;;;;;;;-0.40;69.42;101796.04;109565;1253;60073;-72
2023/01/25 12:10:48;;;;;;;13.10;10.00;;;;;;;-0.42;69.36;101799.35;109551;1251;66194;-72
2023/01/25 12:13:47;;;;;;;14.10;9.70;;;;;;;-0.42;69.15;101797.11;109589;1251;58387;-72
2023/01/25 12:16:35;;;;;;;12.90;10.10;;;;;;;-0.43;69.06;101800.58;109452;1254;63896;-72
2023/01/25 12:19:17;;;;;;;13.80;10.20;;;;;;;-0.45;69.04;101801.14;109571;1255;58114;-72
2023/01/25 12:21:47;;;;;;;16.60;10.20;;;;;;;-0.46;69.05;101798.89;109631;1251;58170;-70
2023/01/25 14:27:52;;;;;;;13.10;9.40;;;;;;;-1.14;70.81;101732.08;103179;1283;613497;-68
2023/01/25 14:30:26;;;;;;;11.30;9.60;;;;;;;-0.89;69.88;101727.21;104643;1267;105543;-67
2023/01/25 14:32:56;;;;;;;24.80;18.90;;;;;;;-0.90;69.63;101724.28;104560;1267;59321;-68
2023/01/25 14:35:41;;;;;;;17.00;12.60;;;;;;;-0.92;69.45;101726.04;104827;1269;65189;-68
2023/01/25 14:38:25;;;;;;;16.30;10.60;;;;;;;-0.94;69.21;101726.59;104698;1267;59944;-67
2023/01/25 14:40:59;;;;;;;12.70;10.10;;;;;;;-0.98;69.08;101720.57;104754;1267;64592;-67
2023/01/25 14:43:28;;;;;;;15.20;9.80;;;;;;;-1.02;69.07;101724.08;104741;1270;59481;-68
2023/01/25 14:45:57;;;;;;;11.70;9.70;;;;;;;-1.04;69.00;101724.96;105541;1270;59452;-70
2023/01/25 14:48:41;;;;;;;10.80;8.90;;;;;;;-1.07;68.90;101722.91;105082;1268;65146;-72
2023/01/25 14:51:23;;;;;;;15.40;9.70;;;;;;;-1.10;68.72;101721.23;105043;1266;59982;-70
2023/01/25 14:54:04;;;;;;;13.30;9.30;;;;;;;-1.13;68.66;101720.21;105180;1267;65333;-69
2023/01/25 14:56:34;;;;;;;12.70;9.20;;;;;;;-1.15;68.64;101718.16;105001;1264;59739;-71
2023/01/25 14:59:03;;;;;;;12.70;9.00;;;;;;;-1.15;68.65;101713.67;104672;1267;59666;-69
2023/01/25 15:01:37;;;;;;;13.60;9.40;;;;;;;-1.16;68.52;101707.80;104633;1267;64645;-69
2023/01/25 15:04:11;;;;;;;11.70;9.80;;;;;;;-1.17;68.43;101705.20;105574;1265;59645;-66
2023/01/25 15:06:46;;;;;;;12.10;8.80;;;;;;;-1.19;68.41;101705.91;104635;1266;65181;-68
2023/01/25 15:10:01;;;;;;;12.10;9.20;;;;;;;-1.20;68.43;101705.23;104867;1266;59867;-69
2023/01/25 15:12:31;;;;;;;11.90;8.80;;;;;;;-1.22;68.32;101707.34;104743;1265;59982;-68
2023/01/25 15:15:01;;;;;;;13.60;9.80;;;;;;;-1.22;68.34;101710.98;104613;1265;65916;-69
2023/01/25 15:17:39;;;;;;;13.60;10.30;;;;;;;-1.22;68.35;101713.73;105243;1269;59584;-69
2023/01/25 15:20:37;;;;;;;14.30;10.90;;;;;;;-1.23;68.34;101712.54;105320;1267;65268;-69
2023/01/25 15:23:16;;;;;;;13.20;11.00;;;;;;;-1.23;68.29;101713.23;104953;1266;59628;-70
2023/01/25 15:25:53;;;;;;;12.40;10.10;;;;;;;-1.23;68.36;101714.43;104929;1259;59663;-69
2023/01/25 15:28:23;;;;;;;13.60;10.10;;;;;;;-1.22;68.39;101709.06;105741;1260;64929;-68
2023/01/25 15:30:51;;;;;;;13.60;10.00;;;;;;;-1.22;68.43;101705.27;105131;1260;59910;-69
2023/01/25 15:33:26;;;;;;;16.90;12.70;;;;;;;-1.22;68.50;101710.27;105389;1260;63512;-71
2023/01/25 15:35:54;;;;;;;13.40;11.10;;;;;;;-1.23;68.45;101713.23;105624;1263;59736;-72
2023/01/25 15:38:23;;;;;;;15.20;10.80;;;;;;;-1.24;68.43;101714.27;105591;1262;59625;-71
2023/01/25 15:40:59;;;;;;;16.20;11.90;;;;;;;-1.23;68.44;101712.71;105662;1258;66631;-70